createdAt,value
2019-05-21T00:02:26.756Z,96.90
2019-05-21T00:04:56.848Z,96.80
2019-05-21T00:07:26.848Z,97.10
2019-05-21T00:10:07.039Z,96.70
2019-05-21T00:12:37.103Z,96.40
2019-05-21T00:15:07.396Z,96.80
2019-05-21T00:17:37.318Z,97.10
2019-05-21T00:23:11.954Z,97.00
2019-05-21T00:25:42.054Z,97.00
2019-05-21T00:28:35.526Z,96.60
2019-05-21T00:31:43.178Z,96.80
2019-05-21T00:34:49.363Z,96.60
2019-05-21T00:37:55.350Z,96.40
2019-05-21T00:41:01.344Z,96.80
2019-05-21T00:43:43.346Z,96.90
2019-05-21T00:46:13.450Z,97.30
2019-05-21T00:48:43.521Z,97.00
2019-05-21T00:51:13.570Z,97.60
2019-05-21T00:53:44.744Z,97.70
2019-05-21T00:56:14.852Z,97.70
2019-05-21T00:58:44.953Z,97.70
2019-05-21T01:01:15.024Z,97.40
2019-05-21T01:03:45.149Z,97.60
2019-05-21T01:06:15.146Z,97.50
2019-05-21T01:08:47.208Z,97.00
2019-05-21T01:11:21.833Z,97.10
2019-05-21T01:13:51.861Z,96.50
2019-05-21T01:16:21.926Z,96.20
2019-05-21T01:18:51.916Z,96.10
2019-05-21T01:21:21.938Z,96.20
2019-05-21T01:23:51.978Z,96.50
2019-05-21T01:26:21.970Z,96.70
2019-05-21T01:28:52.073Z,96.70
2019-05-21T01:31:36.607Z,96.90
2019-05-21T01:34:06.722Z,96.20
2019-05-21T01:36:36.816Z,95.90
2019-05-21T01:39:08.654Z,95.90
2019-05-21T01:41:41.632Z,95.80
2019-05-21T01:44:11.544Z,95.90
2019-05-21T01:46:41.779Z,96.20
2019-05-21T01:49:11.895Z,96.20
2019-05-21T01:51:41.971Z,96.60
2019-05-21T01:54:16.152Z,96.50
2019-05-21T01:56:50.443Z,96.70
2019-05-21T01:59:20.562Z,96.80
2019-05-21T02:01:50.746Z,97.20
2019-05-21T02:04:20.883Z,97.10
2019-05-21T02:06:51.178Z,97.10
2019-05-21T02:09:21.250Z,97.20
2019-05-21T02:11:53.219Z,97.10
2019-05-21T02:14:34.667Z,97.20
2019-05-21T02:17:04.834Z,97.00
2019-05-21T02:19:35.863Z,96.80
2019-05-21T02:22:05.963Z,96.90
2019-05-21T02:24:35.972Z,97.10
2019-05-21T02:27:06.084Z,97.00
2019-05-21T02:29:37.078Z,96.90
2019-05-21T02:32:07.042Z,97.00
2019-05-21T02:34:37.077Z,96.70
2019-05-21T02:37:07.140Z,97.00
2019-05-21T02:39:37.437Z,96.70
2019-05-21T02:42:07.535Z,96.80
2019-05-21T02:44:37.604Z,97.00
2019-05-21T02:47:07.705Z,96.90
2019-05-21T02:49:37.637Z,96.80
2019-05-21T02:52:07.734Z,96.60
2019-05-21T02:54:41.572Z,96.40
2019-05-21T02:57:09.461Z,96.30
2019-05-21T02:59:40.530Z,96.40
2019-05-21T03:02:18.047Z,96.30
2019-05-21T03:04:48.051Z,96.60
2019-05-21T03:07:18.194Z,96.90
2019-05-21T03:09:48.790Z,97.00
2019-05-21T03:12:19.291Z,96.70
2019-05-21T03:14:49.350Z,96.70
2019-05-21T03:17:20.473Z,96.80
2019-05-21T03:19:56.665Z,97.00
2019-05-21T03:22:26.865Z,96.90
2019-05-21T03:25:02.148Z,97.10
2019-05-21T03:27:29.359Z,97.00
2019-05-21T03:29:59.252Z,96.90
2019-05-21T03:32:29.279Z,97.10
2019-05-21T03:34:59.327Z,97.20
2019-05-21T03:37:29.479Z,97.10
2019-05-21T03:39:59.552Z,97.10
2019-05-21T03:42:29.653Z,97.40
2019-05-21T03:45:01.143Z,97.30
2019-05-21T03:47:31.343Z,97.30
2019-05-21T03:50:01.415Z,97.10
2019-05-21T03:52:32.526Z,97.00
2019-05-21T03:55:03.262Z,96.80
2019-05-21T03:57:33.454Z,96.30
2019-05-21T04:00:05.522Z,96.20
2019-05-21T04:02:35.520Z,96.20
2019-05-21T04:05:06.312Z,96.20
2019-05-21T04:07:36.410Z,96.10
2019-05-21T04:10:17.271Z,96.00
2019-05-21T04:12:49.005Z,95.80
2019-05-21T04:15:20.609Z,95.20
2019-05-21T04:18:05.586Z,95.10
2019-05-21T04:20:36.950Z,94.90
2019-05-21T04:23:07.018Z,94.80
2019-05-21T04:25:37.135Z,94.70
2019-05-21T04:28:18.668Z,94.50
2019-05-21T04:30:49.196Z,94.40
2019-05-21T04:33:19.125Z,94.40
2019-05-21T04:35:54.842Z,94.30
2019-05-21T04:38:24.887Z,94.40
2019-05-21T04:40:54.971Z,94.50
2019-05-21T04:43:25.157Z,94.50
2019-05-21T04:45:55.280Z,94.60
2019-05-21T04:48:25.362Z,94.60
2019-05-21T04:50:56.304Z,94.60
2019-05-21T04:53:32.362Z,94.50
2019-05-21T04:56:03.539Z,94.60
2019-05-21T04:58:48.201Z,94.70
2019-05-21T05:01:18.359Z,94.60
2019-05-21T05:03:49.149Z,94.70
2019-05-21T05:06:19.212Z,94.70
2019-05-21T05:08:49.225Z,94.70
2019-05-21T05:11:19.366Z,94.60
2019-05-21T05:13:50.577Z,94.90
2019-05-21T05:16:20.806Z,94.70
2019-05-21T05:19:00.858Z,94.70
2019-05-21T05:24:37.014Z,94.30
2019-05-21T05:27:13.737Z,94.20
2019-05-21T05:29:47.452Z,94.20
2019-05-21T05:32:21.313Z,94.30
2019-05-21T05:34:52.575Z,94.10
2019-05-21T05:37:22.753Z,94.50
2019-05-21T05:39:53.016Z,94.40
2019-05-21T05:42:32.095Z,94.50
2019-05-21T05:45:02.371Z,94.30
2019-05-21T05:47:32.481Z,94.60
2019-05-21T05:50:04.616Z,94.60
2019-05-21T05:52:36.216Z,94.50
2019-05-21T05:55:07.704Z,94.60
2019-05-21T05:57:38.449Z,94.70
2019-05-21T06:00:11.043Z,94.50
2019-05-21T06:02:44.210Z,94.90
2019-05-21T06:05:15.086Z,94.50
2019-05-21T06:07:58.782Z,94.60
2019-05-21T06:10:16.982Z,94.50
2019-05-21T06:12:47.061Z,94.50
2019-05-21T06:15:17.674Z,94.60
2019-05-21T06:17:47.761Z,94.50
2019-05-21T06:20:18.998Z,94.60
2019-05-21T06:22:49.089Z,94.60
2019-05-21T06:25:19.600Z,94.70
2019-05-21T06:27:50.981Z,94.40
2019-05-21T06:30:21.019Z,94.40
2019-05-21T06:32:51.157Z,94.50
2019-05-21T06:35:21.187Z,94.60
2019-05-21T06:37:51.245Z,94.40
2019-05-21T06:40:21.361Z,94.30
2019-05-21T06:42:51.495Z,94.50
2019-05-21T06:45:23.047Z,94.90
2019-05-21T06:47:53.248Z,94.40
2019-05-21T06:50:23.341Z,94.60
2019-05-21T06:52:53.518Z,94.70
2019-05-21T06:55:23.643Z,94.30
2019-05-21T06:57:53.799Z,94.50
2019-05-21T07:00:24.113Z,94.50
2019-05-21T07:02:54.286Z,94.50
2019-05-21T07:05:25.540Z,94.20
2019-05-21T07:07:55.580Z,94.30
2019-05-21T07:10:26.247Z,94.40
2019-05-21T07:12:56.331Z,94.30
2019-05-21T07:15:26.488Z,94.00
2019-05-21T07:17:57.487Z,93.70
2019-05-21T07:20:27.607Z,93.60
2019-05-21T07:22:59.021Z,93.60
2019-05-21T07:25:29.210Z,93.50
2019-05-21T07:27:59.369Z,93.50
2019-05-21T07:30:29.544Z,93.70
2019-05-21T07:32:59.673Z,94.00
2019-05-21T07:35:29.803Z,94.50
2019-05-21T07:37:59.954Z,95.10
2019-05-21T07:40:31.349Z,94.60
2019-05-21T07:43:05.319Z,95.00
2019-05-21T07:45:35.913Z,94.50
2019-05-21T07:48:06.075Z,94.80
2019-05-21T07:50:36.259Z,95.10
2019-05-21T07:53:06.377Z,95.10
2019-05-21T07:55:36.486Z,94.80
2019-05-21T07:58:06.613Z,94.60
2019-05-21T08:00:36.706Z,94.30
2019-05-21T08:03:08.988Z,94.80
2019-05-21T08:05:39.121Z,94.90
2019-05-21T08:08:09.330Z,94.50
2019-05-21T08:10:40.495Z,94.70
2019-05-21T08:13:10.574Z,94.50
2019-05-21T08:15:40.687Z,94.00
2019-05-21T08:18:10.808Z,93.90
2019-05-21T08:20:40.898Z,94.20
2019-05-21T08:23:11.016Z,94.20
2019-05-21T08:25:41.146Z,93.50
2019-05-21T08:28:11.154Z,93.40
2019-05-21T08:30:41.183Z,93.70
2019-05-21T08:33:11.324Z,93.90
2019-05-21T08:35:41.275Z,93.30
2019-05-21T08:38:11.410Z,93.10
2019-05-21T08:40:41.486Z,93.10
2019-05-21T08:43:11.524Z,93.10
2019-05-21T08:45:41.535Z,92.00
2019-05-21T08:48:11.591Z,91.40
2019-05-21T08:50:41.970Z,90.30
2019-05-21T08:53:12.123Z,90.90
2019-05-21T08:55:43.162Z,90.70
2019-05-21T08:58:13.206Z,90.50
2019-05-21T09:00:43.338Z,90.60
2019-05-21T09:03:13.513Z,90.10
2019-05-21T09:05:43.594Z,90.40
2019-05-21T09:08:13.794Z,90.30
2019-05-21T09:10:43.857Z,90.80
2019-05-21T09:13:17.374Z,90.40
2019-05-21T09:15:45.832Z,90.40
2019-05-21T09:18:15.907Z,90.60
2019-05-21T09:20:46.093Z,90.70
2019-05-21T09:23:16.246Z,90.30
2019-05-21T09:25:49.448Z,89.10
2019-05-21T09:28:18.027Z,90.20
2019-05-21T09:30:48.147Z,89.00
2019-05-21T09:33:18.258Z,89.20
2019-05-21T09:35:48.370Z,88.80
2019-05-21T09:38:18.506Z,89.20
2019-05-21T09:40:48.577Z,90.00
2019-05-21T09:43:18.627Z,88.40
2019-05-21T09:45:48.698Z,89.40
2019-05-21T09:48:18.822Z,89.20
2019-05-21T09:50:48.759Z,88.20
2019-05-21T09:53:18.798Z,88.70
2019-05-21T09:55:48.849Z,88.10
2019-05-21T09:58:20.630Z,87.50
2019-05-21T10:01:09.521Z,88.40
2019-05-21T10:03:46.961Z,88.10
2019-05-21T10:06:17.181Z,88.20
2019-05-21T10:08:51.574Z,87.70
2019-05-21T10:11:22.205Z,87.20
2019-05-21T10:13:54.563Z,87.60
2019-05-21T10:16:26.160Z,87.20
2019-05-21T10:18:58.761Z,87.80
2019-05-21T10:21:28.888Z,87.70
2019-05-21T10:23:58.827Z,87.30
2019-05-21T10:26:29.013Z,88.10
2019-05-21T10:28:59.172Z,87.40
2019-05-21T10:31:30.478Z,86.20
2019-05-21T10:34:00.542Z,85.50
2019-05-21T10:36:30.574Z,85.00
2019-05-21T10:39:00.711Z,86.60
2019-05-21T10:41:32.407Z,84.80
2019-05-21T10:44:03.973Z,84.30
2019-05-21T10:46:34.270Z,83.70
2019-05-21T10:49:05.083Z,82.70
2019-05-21T10:51:35.174Z,85.10
2019-05-21T10:54:06.371Z,83.30
2019-05-21T10:56:47.239Z,82.90
2019-05-21T10:59:08.198Z,82.90
2019-05-21T11:01:46.026Z,83.90
2019-05-21T11:04:20.187Z,82.80
2019-05-21T11:06:50.514Z,82.40
2019-05-21T11:09:21.663Z,81.50
2019-05-21T11:11:51.771Z,80.70
2019-05-21T11:14:21.883Z,77.30
2019-05-21T11:16:51.899Z,79.00
2019-05-21T11:19:21.992Z,80.00
2019-05-21T11:21:52.040Z,76.90
2019-05-21T11:24:21.976Z,77.90
2019-05-21T11:26:52.083Z,77.50
2019-05-21T11:29:22.140Z,79.20
2019-05-21T11:31:56.888Z,74.70
2019-05-21T11:34:23.938Z,74.60
2019-05-21T11:36:54.167Z,75.10
2019-05-21T11:39:24.283Z,78.20
2019-05-21T11:41:54.378Z,77.00
2019-05-21T11:44:25.569Z,76.50
2019-05-21T11:46:55.714Z,75.60
2019-05-21T11:49:25.801Z,75.80
2019-05-21T11:51:55.906Z,76.40
2019-05-21T11:54:27.186Z,77.20
2019-05-21T11:56:57.321Z,74.90
2019-05-21T11:59:27.514Z,75.80
2019-05-21T12:02:00.087Z,76.30
2019-05-21T12:04:30.073Z,78.10
2019-05-21T12:07:03.326Z,76.10
2019-05-21T12:09:31.874Z,76.50
2019-05-21T12:12:01.970Z,75.60
2019-05-21T12:14:32.070Z,76.60
2019-05-21T12:17:02.998Z,74.50
2019-05-21T12:19:33.146Z,75.00
2019-05-21T12:22:03.215Z,75.80
2019-05-21T12:24:33.255Z,76.40
2019-05-21T12:27:03.933Z,74.40
2019-05-21T12:29:34.492Z,73.80
2019-05-21T12:32:05.266Z,74.20
2019-05-21T12:34:38.795Z,75.00
2019-05-21T12:37:07.999Z,73.70
2019-05-21T12:39:38.198Z,77.30
2019-05-21T12:42:08.314Z,75.50
2019-05-21T12:44:41.194Z,74.10
2019-05-21T12:47:11.356Z,74.60
2019-05-21T12:49:41.484Z,76.10
2019-05-21T12:52:11.570Z,76.20
2019-05-21T12:54:42.632Z,76.10
2019-05-21T12:57:12.720Z,74.80
2019-05-21T12:59:43.906Z,75.80
2019-05-21T13:02:14.037Z,77.10
2019-05-21T13:04:46.963Z,75.30
2019-05-21T13:07:17.103Z,75.80
2019-05-21T13:09:47.231Z,76.00
2019-05-21T13:12:17.255Z,78.90
2019-05-21T13:14:47.294Z,78.30
2019-05-21T13:17:17.515Z,76.20
2019-05-21T13:19:47.628Z,76.60
2019-05-21T13:22:17.747Z,76.80
2019-05-21T13:24:47.742Z,76.20
2019-05-21T13:27:17.889Z,75.30
2019-05-21T13:29:48.058Z,76.10
2019-05-21T13:32:18.202Z,75.40
2019-05-21T13:34:48.314Z,77.10
2019-05-21T13:37:18.428Z,73.50
2019-05-21T13:39:50.471Z,73.20
2019-05-21T13:42:20.263Z,76.50
2019-05-21T13:44:50.383Z,73.80
2019-05-21T13:47:20.580Z,73.70
2019-05-21T13:49:50.672Z,74.00
2019-05-21T13:52:20.714Z,75.10
2019-05-21T13:54:50.736Z,74.20
2019-05-21T13:57:20.884Z,73.60
2019-05-21T13:59:51.048Z,74.40
2019-05-21T14:02:21.160Z,74.40
2019-05-21T14:04:51.356Z,75.60
2019-05-21T14:07:21.394Z,77.00
2019-05-21T14:10:12.533Z,78.20
2019-05-21T14:12:23.455Z,78.30
2019-05-21T14:14:53.633Z,77.30
2019-05-21T14:17:23.765Z,76.30
2019-05-21T14:19:53.900Z,76.80
2019-05-21T14:22:24.026Z,77.30
2019-05-21T14:24:54.069Z,76.50
2019-05-21T14:27:24.154Z,76.90
2019-05-21T14:29:54.229Z,78.40
2019-05-21T14:32:24.322Z,75.50
2019-05-21T14:35:01.354Z,75.40
2019-05-21T14:37:26.152Z,76.30
2019-05-21T14:39:56.234Z,76.50
2019-05-21T14:42:26.350Z,77.20
2019-05-21T14:44:56.364Z,77.90
2019-05-21T14:47:27.975Z,79.40
2019-05-21T14:49:58.050Z,80.70
2019-05-21T14:52:28.181Z,81.30
2019-05-21T14:54:58.274Z,81.20
2019-05-21T14:57:28.408Z,81.50
2019-05-21T14:59:58.490Z,81.40
2019-05-21T15:02:29.544Z,81.80
2019-05-21T15:04:59.574Z,81.30
2019-05-21T15:07:29.655Z,80.40
2019-05-21T15:09:59.703Z,80.50
2019-05-21T15:12:29.861Z,79.70
2019-05-21T15:14:59.946Z,79.20
2019-05-21T15:17:30.031Z,79.70
2019-05-21T15:20:01.803Z,78.90
2019-05-21T15:22:31.890Z,79.10
2019-05-21T15:25:02.107Z,78.90
2019-05-21T15:27:32.183Z,80.30
2019-05-21T15:30:03.575Z,79.80
2019-05-21T15:32:35.555Z,79.20
2019-05-21T15:35:06.511Z,78.30
2019-05-21T15:37:38.251Z,77.00
2019-05-21T15:40:08.815Z,78.00
2019-05-21T15:42:38.835Z,78.60
2019-05-21T15:45:10.255Z,78.80
2019-05-21T15:47:41.433Z,78.00
2019-05-21T15:50:11.643Z,78.70
2019-05-21T15:52:41.636Z,79.50
2019-05-21T15:55:11.857Z,79.40
2019-05-21T15:57:42.059Z,79.80
2019-05-21T16:00:15.433Z,80.40
2019-05-21T16:02:45.669Z,80.40
2019-05-21T16:05:17.445Z,80.60
2019-05-21T16:07:49.107Z,80.40
2019-05-21T16:10:19.194Z,81.40
2019-05-21T16:12:54.016Z,80.90
2019-05-21T16:15:22.176Z,80.50
2019-05-21T16:17:52.487Z,80.00
2019-05-21T16:20:25.431Z,80.80
2019-05-21T16:22:58.267Z,80.70
2019-05-21T16:25:29.334Z,80.00
2019-05-21T16:27:59.476Z,79.50
2019-05-21T16:30:29.562Z,80.60
2019-05-21T16:32:59.690Z,80.10
2019-05-21T16:35:29.986Z,80.60
2019-05-21T16:38:00.046Z,81.00
2019-05-21T16:40:34.774Z,82.00
2019-05-21T16:43:06.053Z,82.50
2019-05-21T16:45:39.078Z,82.50
2019-05-21T16:48:10.192Z,82.50
2019-05-21T16:50:44.060Z,82.80
2019-05-21T16:53:14.142Z,83.00
2019-05-21T16:55:48.523Z,83.00
2019-05-21T16:58:20.287Z,83.40
2019-05-21T17:00:55.675Z,83.90
2019-05-21T17:03:26.885Z,83.30
2019-05-21T17:05:57.033Z,83.50
2019-05-21T17:08:28.623Z,84.00
2019-05-21T17:10:58.638Z,84.10
2019-05-21T17:13:28.650Z,84.40
2019-05-21T17:16:00.142Z,84.70
2019-05-21T17:18:31.692Z,85.10
2019-05-21T17:21:03.439Z,85.40
2019-05-21T17:23:35.274Z,85.50
2019-05-21T17:26:06.464Z,85.80
2019-05-21T17:28:41.486Z,86.00
2019-05-21T17:31:13.090Z,85.80
2019-05-21T17:33:43.144Z,85.90
2019-05-21T17:36:14.074Z,86.00
2019-05-21T17:38:44.606Z,85.80
2019-05-21T17:41:15.756Z,86.10
2019-05-21T17:43:48.805Z,86.20
2019-05-21T17:46:19.442Z,86.20
2019-05-21T17:48:49.475Z,86.70
2019-05-21T17:51:20.121Z,86.60
2019-05-21T17:53:50.160Z,86.80
2019-05-21T17:56:20.256Z,87.40
2019-05-21T17:58:50.404Z,86.90
2019-05-21T18:01:21.182Z,87.10
2019-05-21T18:03:51.611Z,87.20
2019-05-21T18:06:21.724Z,87.50
2019-05-21T18:08:52.160Z,87.20
2019-05-21T18:11:23.359Z,87.40
2019-05-21T18:13:58.502Z,87.70
2019-05-21T18:16:30.363Z,87.80
2019-05-21T18:19:08.580Z,88.10
2019-05-21T18:21:40.839Z,88.10
2019-05-21T18:24:11.738Z,88.20
2019-05-21T18:26:41.878Z,88.30
2019-05-21T18:29:12.041Z,88.30
2019-05-21T18:31:42.265Z,88.50
2019-05-21T18:34:12.683Z,88.80
2019-05-21T18:36:43.134Z,89.00
2019-05-21T18:39:13.151Z,89.20
2019-05-21T18:41:43.434Z,89.30
2019-05-21T18:44:13.593Z,89.50
2019-05-21T18:46:45.224Z,89.70
2019-05-21T18:49:15.438Z,89.80
2019-05-21T18:51:46.166Z,89.70
2019-05-21T18:54:16.467Z,89.80
2019-05-21T18:56:46.651Z,90.00
2019-05-21T18:59:18.324Z,90.00
2019-05-21T19:01:49.574Z,90.00
2019-05-21T19:04:21.302Z,90.10
2019-05-21T19:06:51.548Z,90.40
2019-05-21T19:09:21.704Z,90.30
2019-05-21T19:11:51.855Z,90.20
2019-05-21T19:14:21.985Z,90.40
2019-05-21T19:16:52.766Z,90.70
2019-05-21T19:19:37.179Z,90.80
2019-05-21T19:22:09.264Z,91.20
2019-05-21T19:24:44.434Z,91.50
2019-05-21T19:27:23.751Z,91.60
2019-05-21T19:29:59.154Z,92.00
2019-05-21T19:32:36.820Z,92.50
2019-05-21T19:35:09.322Z,93.40
2019-05-21T19:37:41.005Z,93.00
2019-05-21T19:40:22.844Z,93.10
2019-05-21T19:42:55.414Z,92.70
2019-05-21T19:45:27.162Z,92.40
2019-05-21T19:47:57.290Z,93.10
2019-05-21T19:50:32.843Z,93.20
2019-05-21T19:53:03.796Z,93.30
2019-05-21T19:55:36.352Z,93.40
2019-05-21T19:58:09.625Z,92.90
2019-05-21T20:00:44.504Z,93.20
2019-05-21T20:03:17.103Z,93.50
2019-05-21T20:05:52.665Z,93.80
2019-05-21T20:08:28.442Z,93.80
2019-05-21T20:11:00.187Z,93.80
2019-05-21T20:13:32.465Z,94.30
2019-05-21T20:16:03.369Z,93.80
2019-05-21T20:18:37.445Z,93.50
2019-05-21T20:21:08.848Z,93.50
2019-05-21T20:23:40.647Z,93.60
2019-05-21T20:26:16.574Z,93.60
2019-05-21T20:28:50.214Z,93.70
2019-05-21T20:31:20.961Z,93.30
2019-05-21T20:33:53.334Z,93.60
2019-05-21T20:36:23.475Z,93.10
2019-05-21T20:38:55.342Z,93.20
2019-05-21T20:41:27.216Z,93.30
2019-05-21T20:43:59.538Z,93.50
2019-05-21T20:46:35.182Z,93.50
2019-05-21T20:49:05.933Z,94.10
2019-05-21T20:51:37.488Z,94.10
2019-05-21T20:54:12.047Z,94.60
2019-05-21T20:56:43.826Z,94.50
2019-05-21T20:59:19.828Z,94.80
2019-05-21T21:01:51.855Z,94.70
2019-05-21T21:04:27.223Z,94.60
2019-05-21T21:06:59.460Z,94.70
2019-05-21T21:09:30.159Z,94.90
2019-05-21T21:12:00.317Z,95.00
2019-05-21T21:14:31.972Z,95.50
2019-05-21T21:17:02.653Z,95.60
2019-05-21T21:19:32.810Z,95.70
2019-05-21T21:22:03.024Z,95.60
2019-05-21T21:24:33.335Z,95.80
2019-05-21T21:27:04.789Z,95.80
2019-05-21T21:29:34.889Z,95.80
2019-05-21T21:32:07.338Z,95.80
2019-05-21T21:34:37.417Z,96.00
2019-05-21T21:37:09.040Z,96.00
2019-05-21T21:39:40.636Z,95.80
2019-05-21T21:42:11.431Z,96.00
2019-05-21T21:44:42.014Z,96.10
2019-05-21T21:47:16.152Z,96.00
2019-05-21T21:49:46.627Z,96.00
2019-05-21T21:52:16.807Z,96.10
2019-05-21T21:54:47.186Z,96.00
2019-05-21T21:57:19.951Z,95.70
2019-05-21T21:59:50.594Z,96.10
2019-05-21T22:02:32.626Z,95.90
2019-05-21T22:05:06.407Z,96.10
2019-05-21T22:07:38.531Z,96.00
2019-05-21T22:10:08.689Z,96.10
2019-05-21T22:12:38.812Z,96.20
2019-05-21T22:15:09.267Z,96.30
2019-05-21T22:17:39.455Z,96.50
2019-05-21T22:20:10.447Z,96.50
2019-05-21T22:22:40.571Z,96.60
2019-05-21T22:25:11.134Z,96.70
2019-05-21T22:27:42.482Z,97.20
2019-05-21T22:30:13.506Z,96.70
2019-05-21T22:32:43.609Z,96.60
2019-05-21T22:35:14.674Z,96.50
2019-05-21T22:37:45.750Z,96.40
2019-05-21T22:40:18.410Z,96.50
2019-05-21T22:42:51.817Z,96.50
2019-05-21T22:45:24.026Z,96.60
2019-05-21T22:47:53.978Z,96.50
2019-05-21T22:50:27.091Z,96.50
2019-05-21T22:52:59.995Z,96.50
2019-05-21T22:55:33.127Z,96.50
2019-05-21T22:58:08.014Z,96.50
2019-05-21T23:00:41.494Z,96.60
2019-05-21T23:03:30.408Z,96.80
2019-05-21T23:06:03.160Z,96.80
2019-05-21T23:08:45.337Z,96.90
2019-05-21T23:11:23.376Z,96.80
2019-05-21T23:13:56.982Z,96.80
2019-05-21T23:16:36.000Z,96.80
2019-05-21T23:19:26.380Z,97.00
2019-05-21T23:22:09.622Z,97.10
2019-05-21T23:24:41.579Z,97.20
2019-05-21T23:27:15.620Z,97.40
2019-05-21T23:29:45.618Z,97.90
2019-05-21T23:32:24.829Z,97.40
2019-05-21T23:34:59.715Z,97.20
2019-05-21T23:37:45.786Z,97.20
2019-05-21T23:40:22.883Z,97.30
2019-05-21T23:42:58.013Z,97.30
2019-05-21T23:45:33.946Z,97.10
2019-05-21T23:48:07.411Z,97.30
2019-05-21T23:50:45.770Z,97.40
2019-05-21T23:53:31.258Z,97.40
2019-05-21T23:56:07.916Z,97.50
2019-05-21T23:58:42.886Z,97.20
